createdAt,value
2022-12-28T00:01:20.109Z,92.00
2022-12-28T00:03:47.429Z,92.00
2022-12-28T00:06:14.870Z,92.00
2022-12-28T00:08:42.490Z,92.00
2022-12-28T00:11:20.290Z,92.00
2022-12-28T00:13:54.520Z,92.00
2022-12-28T00:16:25.964Z,92.00
2022-12-28T00:18:52.950Z,92.00
2022-12-28T00:21:19.546Z,92.00
2022-12-28T00:23:52.509Z,92.00
2022-12-28T00:26:20.250Z,92.00
2022-12-28T00:28:47.850Z,92.00
2022-12-28T00:31:15.320Z,92.00
2022-12-28T00:33:42.589Z,92.00
2022-12-28T00:36:12.145Z,91.90
2022-12-28T00:38:38.706Z,92.00
2022-12-28T00:41:06.280Z,91.90
2022-12-28T00:43:33.437Z,91.90
2022-12-28T00:46:00.108Z,91.90
2022-12-28T00:48:27.080Z,91.90
2022-12-28T00:51:00.590Z,92.00
2022-12-28T00:53:27.191Z,92.00
2022-12-28T00:55:53.797Z,91.90
2022-12-28T00:58:20.373Z,91.90
2022-12-28T01:00:49.122Z,91.90
2022-12-28T01:03:15.739Z,91.90
2022-12-28T01:05:42.390Z,91.90
2022-12-28T01:08:08.926Z,91.90
2022-12-28T01:10:35.468Z,91.90
2022-12-28T01:13:02.028Z,91.90
2022-12-28T01:15:28.653Z,91.90
2022-12-28T01:17:55.455Z,91.90
2022-12-28T01:20:22.047Z,91.90
2022-12-28T01:22:48.681Z,91.90
2022-12-28T01:25:15.299Z,92.00
2022-12-28T01:27:41.903Z,91.90
2022-12-28T01:30:09.153Z,91.90
2022-12-28T01:32:35.753Z,91.90
2022-12-28T01:35:02.345Z,91.90
2022-12-28T01:37:28.958Z,91.90
2022-12-28T01:39:55.540Z,91.90
2022-12-28T01:42:22.104Z,91.90
2022-12-28T01:44:50.426Z,91.90
2022-12-28T01:47:35.818Z,91.90
2022-12-28T01:50:08.667Z,91.90
2022-12-28T01:52:57.458Z,91.90
2022-12-28T01:55:33.855Z,91.90
2022-12-28T01:58:05.435Z,91.90
2022-12-28T02:00:32.354Z,91.90
2022-12-28T02:03:10.569Z,91.90
2022-12-28T02:05:40.053Z,91.90
2022-12-28T02:08:12.159Z,91.90
2022-12-28T02:10:45.792Z,91.90
2022-12-28T02:13:15.349Z,91.90
2022-12-28T02:15:42.603Z,91.80
2022-12-28T02:18:10.643Z,92.20
2022-12-28T02:20:54.408Z,91.80
2022-12-28T02:23:46.488Z,91.90
2022-12-28T02:26:32.664Z,92.30
2022-12-28T02:29:36.663Z,91.80
2022-12-28T02:32:11.154Z,91.90
2022-12-28T02:34:45.569Z,91.90
2022-12-28T02:37:48.711Z,91.80
2022-12-28T02:40:21.332Z,91.80
2022-12-28T02:42:49.455Z,91.80
2022-12-28T02:45:49.043Z,91.90
2022-12-28T02:48:34.475Z,91.80
2022-12-28T02:51:08.653Z,91.90
2022-12-28T02:53:45.151Z,91.80
2022-12-28T02:56:34.547Z,91.80
2022-12-28T02:59:31.474Z,91.80
2022-12-28T03:02:25.095Z,91.80
2022-12-28T03:05:07.203Z,91.80
2022-12-28T03:08:05.907Z,91.80
2022-12-28T03:10:59.967Z,91.90
2022-12-28T03:13:43.866Z,91.80
2022-12-28T03:17:04.060Z,91.80
2022-12-28T03:19:55.613Z,91.80
2022-12-28T03:22:43.881Z,91.80
2022-12-28T03:25:33.240Z,91.80
2022-12-28T03:28:21.266Z,91.80
2022-12-28T03:31:07.040Z,91.80
2022-12-28T03:33:41.270Z,92.10
2022-12-28T03:36:20.239Z,91.80
2022-12-28T03:39:02.079Z,91.80
2022-12-28T03:41:36.803Z,91.80
2022-12-28T03:44:13.187Z,91.80
2022-12-28T03:46:49.406Z,91.80
2022-12-28T03:49:16.264Z,91.80
2022-12-28T03:51:45.403Z,91.80
2022-12-28T03:54:16.209Z,91.80
2022-12-28T03:56:47.723Z,91.80
2022-12-28T03:59:15.286Z,91.80
2022-12-28T04:01:42.000Z,91.80
2022-12-28T04:04:09.173Z,91.80
2022-12-28T04:06:36.151Z,91.80
2022-12-28T04:09:03.053Z,91.80
2022-12-28T04:11:29.650Z,91.80
2022-12-28T04:13:56.197Z,91.80
2022-12-28T04:16:23.506Z,91.80
2022-12-28T04:18:50.175Z,91.80
2022-12-28T04:21:16.912Z,91.80
2022-12-28T04:23:43.653Z,91.80
2022-12-28T04:26:13.059Z,91.80
2022-12-28T04:28:40.642Z,91.80
2022-12-28T04:31:08.809Z,91.80
2022-12-28T04:33:36.887Z,91.80
2022-12-28T04:36:08.456Z,91.80
2022-12-28T04:38:35.650Z,91.80
2022-12-28T04:41:03.749Z,91.80
2022-12-28T04:43:30.920Z,91.80
2022-12-28T04:45:59.145Z,91.80
2022-12-28T04:48:26.665Z,91.80
2022-12-28T04:50:54.828Z,91.80
2022-12-28T04:53:21.534Z,91.80
2022-12-28T04:55:48.432Z,91.80
2022-12-28T04:58:15.442Z,91.80
2022-12-28T05:00:42.122Z,91.80
2022-12-28T05:03:08.828Z,91.80
2022-12-28T05:05:37.007Z,91.80
2022-12-28T05:08:03.623Z,91.80
2022-12-28T05:10:30.216Z,91.80
2022-12-28T05:12:56.907Z,91.80
2022-12-28T05:15:23.610Z,91.80
2022-12-28T05:17:50.376Z,91.80
2022-12-28T05:20:19.905Z,91.80
2022-12-28T05:22:46.825Z,91.80
2022-12-28T05:25:13.526Z,91.80
2022-12-28T05:27:40.168Z,91.80
2022-12-28T05:30:07.523Z,91.80
2022-12-28T05:32:34.045Z,91.80
2022-12-28T05:35:00.617Z,91.80
2022-12-28T05:37:27.239Z,91.80
2022-12-28T05:39:53.744Z,91.80
2022-12-28T05:42:20.351Z,91.80
2022-12-28T05:44:46.992Z,91.70
2022-12-28T05:47:13.751Z,91.70
2022-12-28T05:49:40.385Z,91.80
2022-12-28T05:52:06.927Z,91.70
2022-12-28T05:54:33.435Z,91.80
2022-12-28T05:56:59.994Z,91.80
2022-12-28T05:59:26.547Z,91.80
2022-12-28T06:01:53.225Z,91.80
2022-12-28T06:04:21.154Z,91.70
2022-12-28T06:06:48.569Z,91.70
2022-12-28T06:09:15.720Z,91.70
2022-12-28T06:11:42.941Z,91.70
2022-12-28T06:14:09.549Z,91.70
2022-12-28T06:16:39.256Z,91.70
2022-12-28T06:19:08.080Z,91.70
2022-12-28T06:21:36.496Z,91.70
2022-12-28T06:24:04.843Z,91.70
2022-12-28T06:26:33.206Z,91.70
2022-12-28T06:29:01.853Z,91.70
2022-12-28T06:31:31.447Z,91.70
2022-12-28T06:34:00.195Z,91.70
2022-12-28T06:36:33.060Z,91.80
2022-12-28T06:39:00.938Z,91.70
2022-12-28T06:41:28.660Z,91.70
2022-12-28T06:43:55.621Z,91.70
2022-12-28T06:46:24.155Z,91.70
2022-12-28T06:48:50.983Z,91.70
2022-12-28T06:51:20.675Z,91.70
2022-12-28T06:53:48.506Z,91.70
2022-12-28T06:56:26.803Z,91.70
2022-12-28T06:59:00.335Z,91.70
2022-12-28T07:01:38.644Z,91.70
2022-12-28T07:04:07.412Z,91.70
2022-12-28T07:06:37.611Z,91.70
2022-12-28T07:09:08.139Z,91.70
2022-12-28T07:11:34.947Z,91.70
2022-12-28T07:14:01.627Z,91.70
2022-12-28T07:18:59.085Z,91.70
2022-12-28T07:21:28.723Z,91.70
2022-12-28T07:23:56.486Z,91.70
2022-12-28T07:26:25.771Z,91.70
2022-12-28T07:28:54.367Z,91.70
2022-12-28T07:31:34.715Z,91.70
2022-12-28T07:34:04.877Z,91.70
2022-12-28T07:36:32.779Z,91.70
2022-12-28T07:39:00.304Z,91.70
2022-12-28T07:41:32.897Z,91.60
2022-12-28T07:44:00.488Z,91.70
2022-12-28T07:46:32.276Z,91.70
2022-12-28T07:49:00.497Z,91.70
2022-12-28T07:51:29.452Z,91.70
2022-12-28T07:53:57.603Z,91.70
2022-12-28T07:56:25.807Z,91.70
2022-12-28T07:58:57.202Z,91.70
2022-12-28T08:01:27.185Z,91.70
2022-12-28T08:03:55.847Z,91.60
2022-12-28T08:06:23.591Z,91.70
2022-12-28T08:08:53.911Z,91.60
2022-12-28T08:11:25.807Z,91.70
2022-12-28T08:13:54.719Z,91.60
2022-12-28T08:16:23.223Z,91.60
2022-12-28T08:18:49.894Z,91.70
2022-12-28T08:21:28.240Z,91.60
2022-12-28T08:23:55.561Z,91.60
2022-12-28T08:26:24.960Z,91.60
2022-12-28T08:28:54.320Z,91.60
2022-12-28T08:31:23.606Z,91.60
2022-12-28T08:33:52.143Z,91.60
2022-12-28T08:36:18.957Z,91.60
2022-12-28T08:38:46.494Z,91.60
2022-12-28T08:41:16.937Z,91.60
2022-12-28T08:43:44.275Z,91.60
2022-12-28T08:46:21.740Z,91.60
2022-12-28T08:48:49.917Z,91.60
2022-12-28T08:51:20.925Z,91.60
2022-12-28T08:53:48.476Z,91.60
2022-12-28T08:56:19.021Z,91.60
2022-12-28T08:58:46.374Z,91.60
2022-12-28T09:01:23.299Z,91.60
2022-12-28T09:03:52.551Z,91.60
2022-12-28T09:06:25.166Z,91.60
2022-12-28T09:09:05.498Z,91.60
2022-12-28T09:11:34.898Z,91.60
2022-12-28T09:14:02.420Z,91.60
2022-12-28T09:16:29.171Z,91.50
2022-12-28T09:18:58.381Z,91.60
2022-12-28T09:21:29.900Z,91.60
2022-12-28T09:23:57.055Z,91.60
2022-12-28T09:26:26.386Z,91.60
2022-12-28T09:28:55.194Z,91.60
2022-12-28T09:31:23.778Z,91.50
2022-12-28T09:36:49.342Z,91.50
2022-12-28T09:39:20.787Z,91.60
2022-12-28T09:42:09.013Z,91.50
2022-12-28T09:44:44.232Z,91.70
2022-12-28T09:47:23.008Z,91.50
2022-12-28T09:49:59.827Z,91.50
2022-12-28T09:52:28.505Z,91.80
2022-12-28T09:54:57.005Z,91.50
2022-12-28T09:57:25.586Z,91.50
2022-12-28T09:59:52.983Z,91.50
2022-12-28T10:02:28.261Z,91.50
2022-12-28T10:04:55.009Z,91.50
2022-12-28T10:07:21.809Z,91.50
2022-12-28T10:09:48.717Z,91.50
2022-12-28T10:12:17.967Z,91.50
2022-12-28T10:14:46.740Z,91.50
2022-12-28T10:17:15.107Z,91.50
2022-12-28T10:19:45.244Z,91.50
2022-12-28T10:24:53.683Z,91.50
2022-12-28T10:27:25.552Z,91.50
2022-12-28T10:29:53.434Z,91.40
2022-12-28T10:32:20.886Z,91.50
2022-12-28T10:35:01.583Z,91.40
2022-12-28T10:37:31.594Z,91.60
2022-12-28T10:40:01.474Z,91.70
2022-12-28T10:42:36.277Z,91.80
2022-12-28T10:45:06.255Z,91.90
2022-12-28T10:47:43.480Z,92.00
2022-12-28T10:50:41.458Z,92.00
2022-12-28T10:53:32.203Z,92.10
2022-12-28T10:56:06.719Z,92.10
2022-12-28T10:58:34.849Z,92.20
2022-12-28T11:01:06.748Z,92.20
2022-12-28T11:03:36.943Z,92.30
2022-12-28T11:06:21.246Z,92.40
2022-12-28T11:09:06.663Z,92.40
2022-12-28T11:11:33.634Z,92.40
2022-12-28T11:14:06.267Z,92.50
2022-12-28T11:16:37.415Z,92.50
2022-12-28T11:19:04.420Z,92.60
2022-12-28T11:21:32.431Z,92.60
2022-12-28T11:23:59.073Z,92.20
2022-12-28T11:26:27.935Z,91.50
2022-12-28T11:28:55.179Z,91.10
2022-12-28T11:31:36.455Z,91.10
2022-12-28T11:34:06.360Z,91.20
2022-12-28T11:36:39.839Z,91.20
2022-12-28T11:39:24.986Z,91.00
2022-12-28T11:42:36.532Z,90.90
2022-12-28T11:44:42.467Z,90.80
2022-12-28T11:47:33.255Z,90.70
2022-12-28T11:50:34.370Z,90.70
2022-12-28T11:53:02.774Z,90.50
2022-12-28T11:55:43.961Z,90.80
2022-12-28T11:58:28.677Z,90.80
2022-12-28T12:00:56.627Z,90.70
2022-12-28T12:03:57.205Z,90.60
2022-12-28T12:06:43.021Z,90.60
2022-12-28T12:09:21.448Z,90.60
2022-12-28T12:11:51.864Z,90.60
2022-12-28T12:14:39.477Z,90.60
2022-12-28T12:17:20.927Z,90.60
2022-12-28T12:19:51.789Z,90.60
2022-12-28T12:22:25.306Z,90.60
2022-12-28T12:24:54.957Z,90.70
2022-12-28T12:27:36.656Z,90.90
2022-12-28T12:30:07.142Z,90.90
2022-12-28T12:33:02.159Z,91.00
2022-12-28T12:35:33.583Z,91.10
2022-12-28T12:38:11.048Z,91.10
2022-12-28T12:41:01.025Z,91.10
2022-12-28T12:43:46.803Z,91.20
2022-12-28T12:46:50.927Z,91.20
2022-12-28T12:49:17.448Z,91.30
2022-12-28T12:52:16.542Z,91.40
2022-12-28T12:55:17.282Z,91.60
2022-12-28T12:57:55.293Z,91.60
2022-12-28T13:00:22.666Z,91.70
2022-12-28T13:03:09.585Z,91.70
2022-12-28T13:05:41.471Z,91.70
2022-12-28T13:08:19.949Z,91.70
2022-12-28T13:10:46.774Z,91.60
2022-12-28T13:13:34.312Z,91.60
2022-12-28T13:16:04.671Z,91.60
2022-12-28T13:18:44.555Z,91.60
2022-12-28T13:21:20.797Z,91.60
2022-12-28T13:23:47.679Z,91.60
2022-12-28T13:26:15.491Z,91.70
2022-12-28T13:28:56.847Z,92.30
2022-12-28T13:31:49.535Z,92.20
2022-12-28T13:34:21.543Z,92.40
2022-12-28T13:36:58.754Z,92.60
2022-12-28T13:39:36.926Z,92.60
2022-12-28T13:42:24.484Z,92.80
2022-12-28T13:44:55.354Z,92.90
2022-12-28T13:47:32.724Z,92.90
2022-12-28T13:50:12.249Z,93.10
2022-12-28T13:52:50.715Z,93.10
2022-12-28T13:55:27.014Z,93.20
2022-12-28T13:58:01.517Z,93.30
2022-12-28T14:00:30.451Z,93.30
2022-12-28T14:02:58.861Z,93.40
2022-12-28T14:05:28.424Z,93.40
2022-12-28T14:07:57.525Z,93.50
2022-12-28T14:10:24.720Z,93.50
2022-12-28T14:12:52.466Z,93.60
2022-12-28T14:15:19.831Z,93.60
2022-12-28T14:17:49.029Z,93.90
2022-12-28T14:20:16.191Z,93.50
2022-12-28T14:22:42.927Z,93.40
2022-12-28T14:25:17.068Z,93.30
2022-12-28T14:27:46.690Z,93.20
2022-12-28T14:30:31.889Z,93.20
2022-12-28T14:33:10.033Z,93.10
2022-12-28T14:35:48.241Z,93.40
2022-12-28T14:38:21.337Z,93.00
2022-12-28T14:40:59.348Z,93.00
2022-12-28T14:43:29.231Z,92.90
2022-12-28T14:48:45.272Z,92.90
2022-12-28T14:51:14.751Z,92.90
2022-12-28T14:53:41.515Z,92.80
2022-12-28T14:56:11.267Z,92.80
2022-12-28T14:58:51.995Z,92.70
2022-12-28T15:00:25.293Z,92.90
2022-12-28T15:01:21.268Z,92.80
2022-12-28T15:04:04.968Z,92.70
2022-12-28T15:06:32.424Z,92.70
2022-12-28T15:08:59.807Z,92.70
2022-12-28T15:11:28.137Z,93.00
2022-12-28T15:13:54.837Z,92.70
2022-12-28T15:16:25.282Z,92.70
2022-12-28T15:18:52.760Z,92.60
2022-12-28T15:21:22.210Z,92.60
2022-12-28T15:23:50.145Z,92.60
2022-12-28T15:26:17.179Z,92.60
2022-12-28T15:28:43.797Z,92.60
2022-12-28T15:31:13.488Z,92.60
2022-12-28T15:33:40.386Z,92.60
2022-12-28T15:36:16.687Z,92.60
2022-12-28T15:38:44.176Z,92.60
2022-12-28T15:41:30.717Z,92.60
2022-12-28T15:43:57.305Z,92.50
2022-12-28T15:46:23.910Z,92.50
2022-12-28T15:48:50.658Z,92.50
2022-12-28T15:51:17.279Z,92.50
2022-12-28T15:53:44.064Z,92.50
2022-12-28T15:56:20.726Z,92.50
2022-12-28T15:58:47.373Z,92.50
2022-12-28T16:01:14.111Z,92.50
2022-12-28T16:03:40.796Z,92.50
2022-12-28T16:06:07.452Z,92.50
2022-12-28T16:08:33.992Z,92.40
2022-12-28T16:11:12.184Z,92.50
2022-12-28T16:13:38.912Z,92.40
2022-12-28T16:16:07.006Z,92.40
2022-12-28T16:18:33.616Z,92.40
2022-12-28T16:21:01.888Z,92.40
2022-12-28T16:23:32.978Z,92.40
2022-12-28T16:26:00.136Z,92.40
2022-12-28T16:28:27.235Z,92.40
2022-12-28T16:30:54.745Z,92.40
2022-12-28T16:33:21.935Z,92.40
2022-12-28T16:35:51.763Z,92.40
2022-12-28T16:38:23.266Z,92.40
2022-12-28T16:40:50.328Z,92.40
2022-12-28T16:43:19.133Z,92.40
2022-12-28T16:45:45.702Z,92.40
2022-12-28T16:48:15.073Z,92.30
2022-12-28T16:50:42.215Z,92.30
2022-12-28T16:53:09.020Z,92.30
2022-12-28T16:55:41.110Z,92.30
2022-12-28T16:58:08.416Z,92.30
2022-12-28T17:00:35.001Z,92.30
2022-12-28T17:03:01.913Z,92.30
2022-12-28T17:05:33.962Z,92.30
2022-12-28T17:08:00.802Z,92.30
2022-12-28T17:10:27.677Z,92.30
2022-12-28T17:12:54.204Z,92.30
2022-12-28T17:15:20.838Z,92.30
2022-12-28T17:17:47.420Z,92.30
2022-12-28T17:20:13.980Z,92.20
2022-12-28T17:22:40.695Z,92.30
2022-12-28T17:25:07.601Z,92.30
2022-12-28T17:27:34.690Z,92.20
2022-12-28T17:30:01.416Z,90.50
2022-12-28T17:32:28.079Z,89.50
2022-12-28T17:34:54.603Z,87.20
2022-12-28T17:37:21.341Z,87.30
2022-12-28T17:39:47.868Z,86.30
2022-12-28T17:42:14.375Z,86.90
2022-12-28T17:44:41.011Z,87.10
2022-12-28T17:47:08.527Z,88.10
2022-12-28T17:49:35.154Z,90.50
2022-12-28T17:52:01.735Z,91.10
2022-12-28T17:54:28.325Z,91.00
2022-12-28T17:56:54.855Z,91.00
2022-12-28T17:59:21.433Z,91.00
2022-12-28T18:01:48.065Z,91.10
2022-12-28T18:04:15.322Z,91.10
2022-12-28T18:06:41.922Z,91.20
2022-12-28T18:09:08.593Z,91.30
2022-12-28T18:11:35.194Z,91.30
2022-12-28T18:14:01.811Z,91.50
2022-12-28T18:16:28.439Z,91.50
2022-12-28T18:18:55.071Z,91.60
2022-12-28T18:21:23.102Z,91.60
2022-12-28T18:23:52.553Z,91.70
2022-12-28T18:26:26.112Z,91.80
2022-12-28T18:28:53.867Z,91.80
2022-12-28T18:31:20.970Z,91.90
2022-12-28T18:33:47.862Z,91.90
2022-12-28T18:36:17.826Z,92.00
2022-12-28T18:38:46.071Z,92.10
2022-12-28T18:41:15.140Z,92.10
2022-12-28T18:43:42.077Z,92.20
2022-12-28T18:46:09.390Z,92.20
2022-12-28T18:48:39.014Z,92.20
2022-12-28T18:51:11.805Z,92.20
2022-12-28T18:53:38.935Z,92.30
2022-12-28T18:56:11.430Z,92.30
2022-12-28T18:58:39.023Z,92.40
2022-12-28T19:01:10.752Z,92.40
2022-12-28T19:03:43.208Z,92.50
2022-12-28T19:06:10.265Z,92.50
2022-12-28T19:08:39.039Z,92.50
2022-12-28T19:11:06.852Z,92.60
2022-12-28T19:13:38.671Z,93.00
2022-12-28T19:16:07.818Z,92.60
2022-12-28T19:18:34.899Z,92.50
2022-12-28T19:21:30.939Z,92.50
2022-12-28T19:24:06.737Z,92.60
2022-12-28T19:26:34.960Z,92.70
2022-12-28T19:29:03.175Z,92.80
2022-12-28T19:31:30.820Z,92.90
2022-12-28T19:33:57.845Z,92.90
2022-12-28T19:36:24.830Z,93.00
2022-12-28T19:38:54.211Z,93.10
2022-12-28T19:41:21.346Z,93.10
2022-12-28T19:43:47.962Z,93.20
2022-12-28T19:46:17.633Z,93.30
2022-12-28T19:48:44.855Z,93.30
2022-12-28T19:51:12.006Z,93.40
2022-12-28T19:53:38.674Z,93.40
2022-12-28T19:56:08.297Z,93.50
2022-12-28T19:58:36.497Z,93.60
2022-12-28T20:01:08.464Z,93.70
2022-12-28T20:03:35.464Z,91.80
2022-12-28T20:06:07.006Z,90.10
2022-12-28T20:08:33.865Z,89.20
2022-12-28T20:11:00.533Z,88.00
2022-12-28T20:13:27.163Z,87.20
2022-12-28T20:15:53.789Z,86.90
2022-12-28T20:18:20.423Z,86.90
2022-12-28T20:21:17.994Z,85.70
2022-12-28T20:23:36.022Z,86.40
2022-12-28T20:26:02.615Z,87.10
2022-12-28T20:28:29.245Z,86.10
2022-12-28T20:31:22.346Z,86.40
2022-12-28T20:33:49.602Z,86.30
2022-12-28T20:36:19.121Z,86.30
2022-12-28T20:38:46.725Z,86.30
2022-12-28T20:41:34.881Z,86.30
2022-12-28T20:44:04.448Z,86.30
2022-12-28T20:46:31.088Z,86.40
2022-12-28T20:48:59.046Z,86.40
2022-12-28T20:51:26.485Z,86.30
2022-12-28T20:53:53.233Z,86.50
2022-12-28T20:56:20.113Z,86.50
2022-12-28T20:58:46.842Z,86.50
2022-12-28T21:01:15.047Z,86.30
2022-12-28T21:03:43.664Z,86.50
2022-12-28T21:06:10.360Z,86.70
2022-12-28T21:08:36.960Z,87.60
2022-12-28T21:11:04.196Z,88.10
2022-12-28T21:13:30.816Z,88.50
2022-12-28T21:15:57.522Z,88.50
2022-12-28T21:18:24.280Z,88.50
2022-12-28T21:20:55.391Z,88.60
2022-12-28T21:23:22.000Z,88.60
2022-12-28T21:25:48.736Z,88.70
2022-12-28T21:28:15.427Z,88.80
2022-12-28T21:30:41.996Z,89.00
2022-12-28T21:33:08.822Z,89.10
2022-12-28T21:35:35.399Z,89.10
2022-12-28T21:38:03.974Z,89.30
2022-12-28T21:40:30.479Z,89.30
2022-12-28T21:42:57.067Z,89.40
2022-12-28T21:45:23.699Z,90.00
2022-12-28T21:47:50.268Z,89.50
2022-12-28T21:50:16.946Z,89.50
2022-12-28T21:52:43.514Z,89.60
2022-12-28T21:55:29.048Z,89.70
2022-12-28T21:57:55.575Z,89.70
2022-12-28T22:00:40.947Z,89.80
2022-12-28T22:03:26.035Z,89.90
2022-12-28T22:06:10.898Z,89.90
2022-12-28T22:08:55.941Z,89.90
2022-12-28T22:11:41.344Z,89.90
2022-12-28T22:14:08.272Z,90.00
2022-12-28T22:16:35.657Z,90.00
2022-12-28T22:19:04.122Z,90.00
2022-12-28T22:21:31.251Z,90.00
2022-12-28T22:23:58.000Z,90.10
2022-12-28T22:26:24.582Z,90.10
2022-12-28T22:28:51.165Z,90.10
2022-12-28T22:31:17.741Z,90.10
2022-12-28T22:33:44.378Z,90.10
2022-12-28T22:36:16.573Z,90.10
2022-12-28T22:38:43.460Z,90.20
2022-12-28T22:41:10.480Z,90.20
2022-12-28T22:43:37.400Z,90.20
2022-12-28T22:46:07.331Z,90.20
2022-12-28T22:48:34.516Z,90.20
2022-12-28T22:51:06.332Z,90.20
2022-12-28T22:53:33.741Z,90.30
2022-12-28T22:56:01.574Z,90.30
2022-12-28T22:58:28.545Z,90.30
2022-12-28T23:01:09.642Z,90.30
2022-12-28T23:03:40.723Z,90.30
2022-12-28T23:06:08.419Z,90.30
2022-12-28T23:08:35.306Z,90.30
2022-12-28T23:11:26.403Z,90.40
2022-12-28T23:13:52.962Z,90.40
2022-12-28T23:16:19.536Z,90.40
2022-12-28T23:19:04.998Z,90.60
2022-12-28T23:21:50.259Z,90.40
2022-12-28T23:24:35.592Z,90.40
2022-12-28T23:27:20.489Z,90.40
2022-12-28T23:29:47.071Z,90.40
2022-12-28T23:32:13.985Z,90.50
2022-12-28T23:34:40.546Z,90.50
2022-12-28T23:37:07.134Z,90.50
2022-12-28T23:39:33.729Z,90.50
2022-12-28T23:42:00.337Z,90.50
2022-12-28T23:44:27.138Z,90.50
2022-12-28T23:46:58.949Z,90.50
2022-12-28T23:49:26.053Z,90.50
2022-12-28T23:51:52.766Z,90.50
2022-12-28T23:54:19.974Z,90.50
2022-12-28T23:56:48.710Z,90.50
2022-12-28T23:59:15.553Z,90.50
